Time;durP1;ratioP1;P1;durP2;ratioP2;P2;SDS_P1;SDS_P2;PMS_P1;PMS_P2;Temp;Humidity;BMP_temperature;BMP_pressure;BME280_temperature;BME280_humidity;BME280_pressure;Samples;Min_cycle;Max_cycle;Signal;HPM_P1;HPM_P2
2024/04/05 00:00:16;;;;;;;9.15;8.55;;;;;;;15.44;52.31;99862.59;4846687;28;101694;-89
2024/04/05 00:02:44;;;;;;;9.13;8.43;;;;;;;15.43;52.50;99868.84;4862301;28;101263;-89
2024/04/05 00:05:10;;;;;;;8.55;7.95;;;;;;;15.41;52.46;99868.91;4846307;28;96762;-89
2024/04/05 00:07:37;;;;;;;8.95;8.45;;;;;;;15.42;52.28;99875.03;4845705;28;96831;-90
2024/04/05 00:10:09;;;;;;;8.60;8.10;;;;;;;15.36;52.42;99878.94;4842599;29;100300;-89
2024/04/05 00:12:35;;;;;;;9.68;9.05;;;;;;;15.34;52.37;99879.03;4840721;28;101185;-88
2024/04/05 00:15:01;;;;;;;9.80;9.20;;;;;;;15.19;52.73;99874.66;4861396;28;97064;-91
2024/04/05 00:17:26;;;;;;;9.30;8.70;;;;;;;15.15;53.04;99878.41;4862676;28;96939;-90
2024/04/05 00:19:55;;;;;;;9.48;8.88;;;;;;;15.13;53.00;99878.53;4846181;28;100996;-90
2024/04/05 00:22:22;;;;;;;9.38;8.77;;;;;;;15.14;52.92;99887.31;4847035;28;98504;-91
2024/04/05 00:24:49;;;;;;;9.57;8.88;;;;;;;15.16;52.53;99882.78;4862033;28;96792;-89
2024/04/05 00:27:14;;;;;;;10.05;9.43;;;;;;;15.18;52.88;99888.81;4846844;28;96935;-89
2024/04/05 00:29:40;;;;;;;11.10;10.32;;;;;;;15.13;52.94;99889.09;4845869;28;100650;-90
2024/04/05 00:32:05;;;;;;;9.98;9.38;;;;;;;15.12;52.98;99897.09;4877874;28;98107;-90
2024/04/05 00:34:31;;;;;;;10.60;9.65;;;;;;;15.09;52.90;99889.38;4845797;28;96858;-89
2024/04/05 00:36:57;;;;;;;10.18;9.38;;;;;;;15.12;53.26;99897.94;4830724;28;97003;-89
2024/04/05 00:39:22;;;;;;;10.00;9.30;;;;;;;15.13;53.22;99896.19;4845897;28;101110;-89
2024/04/05 00:41:48;;;;;;;9.55;8.90;;;;;;;15.07;53.21;99905.34;4842199;28;101308;-89
2024/04/05 00:44:14;;;;;;;10.05;9.38;;;;;;;15.01;53.54;99908.34;4855194;28;96890;-89
2024/04/05 00:46:40;;;;;;;9.88;9.00;;;;;;;14.95;53.73;99911.31;4841423;28;97376;-90
2024/04/05 00:49:06;;;;;;;10.32;9.48;;;;;;;14.87;53.95;99914.41;4847778;28;100297;-89
2024/04/05 00:51:32;;;;;;;9.93;9.23;;;;;;;14.90;54.14;99911.59;4852636;28;101301;-90
2024/04/05 00:53:57;;;;;;;9.45;8.82;;;;;;;14.82;53.84;99905.06;4861611;28;96755;-90
2024/04/05 00:56:23;;;;;;;9.60;8.70;;;;;;;14.86;53.96;99920.63;4839266;28;97067;-90
2024/04/05 00:58:49;;;;;;;9.98;9.20;;;;;;;14.85;54.24;99915.44;4845147;28;97476;-90
2024/04/05 01:01:15;;;;;;;10.25;9.52;;;;;;;14.80;54.46;99926.28;4859049;28;101830;-89
2024/04/05 01:03:40;;;;;;;9.13;8.57;;;;;;;14.70;54.52;99912.75;4846015;28;97327;-91
2024/04/05 01:06:06;;;;;;;8.88;8.30;;;;;;;14.66;54.73;99921.81;4858347;29;96712;-89
2024/04/05 01:08:32;;;;;;;9.95;9.25;;;;;;;14.57;54.87;99935.50;4845389;28;100575;-90
2024/04/05 01:10:57;;;;;;;9.95;9.20;;;;;;;14.54;54.75;99925.13;4845761;28;101408;-89
2024/04/05 01:13:23;;;;;;;10.18;9.32;;;;;;;14.50;55.12;99937.63;4861767;28;96664;-89
2024/04/05 01:15:48;;;;;;;9.15;8.65;;;;;;;14.48;54.98;99947.41;4845207;28;97165;-90
2024/04/05 01:18:14;;;;;;;10.30;9.52;;;;;;;14.40;55.42;99949.66;4860477;28;101383;-89
2024/04/05 01:20:41;;;;;;;12.52;9.48;;;;;;;14.48;55.33;99951.84;4877207;28;98359;-89
2024/04/05 01:23:10;;;;;;;11.07;9.93;;;;;;;14.39;55.01;99955.84;4844852;28;97117;-90
2024/04/05 01:25:36;;;;;;;9.95;9.15;;;;;;;14.41;55.01;99961.06;4846199;28;97573;-89
2024/04/05 01:28:03;;;;;;;19.27;10.13;;;;;;;14.44;54.76;99956.44;4846248;28;98216;-89
2024/04/05 01:30:29;;;;;;;9.35;8.55;;;;;;;14.36;55.18;99958.66;4849391;29;100412;-90
2024/04/05 01:32:59;;;;;;;9.98;9.27;;;;;;;14.34;54.82;99962.31;4845727;28;96851;-89
2024/04/05 01:35:26;;;;;;;9.20;8.50;;;;;;;14.32;55.11;99954.50;4862238;28;96880;-90
2024/04/05 01:37:52;;;;;;;9.27;8.68;;;;;;;14.22;55.30;99969.13;4845787;28;98114;-89
2024/04/05 01:40:17;;;;;;;9.70;8.75;;;;;;;14.08;55.76;99961.97;4861785;28;101276;-90
2024/04/05 01:42:43;;;;;;;10.05;9.35;;;;;;;14.07;55.60;99959.41;4830201;28;96812;-89
2024/04/05 01:45:08;;;;;;;9.60;8.90;;;;;;;13.98;55.85;99963.41;4861039;28;96995;-89
2024/04/05 01:47:34;;;;;;;9.15;8.55;;;;;;;14.06;55.68;99958.56;4860519;28;98395;-90
2024/04/05 01:50:01;;;;;;;9.32;8.73;;;;;;;14.06;55.67;99952.44;4844797;28;101563;-89
2024/04/05 01:52:26;;;;;;;9.68;9.07;;;;;;;14.01;55.78;99955.31;4845339;28;96833;-89
2024/04/05 01:54:54;;;;;;;10.88;9.98;;;;;;;13.98;56.00;99958.13;4829816;28;97010;-91
2024/04/05 01:57:20;;;;;;;9.30;8.60;;;;;;;14.08;55.79;99955.81;4848688;28;96918;-89
2024/04/05 01:59:50;;;;;;;9.05;8.45;;;;;;;14.11;55.38;99960.94;4876846;28;97387;-90
2024/04/05 02:02:16;;;;;;;10.77;10.07;;;;;;;14.04;55.43;99960.44;4844847;28;96948;-89
2024/04/05 02:04:41;;;;;;;10.75;10.00;;;;;;;13.97;55.49;99957.28;4832189;28;96963;-91
2024/04/05 02:07:07;;;;;;;9.63;9.02;;;;;;;13.96;55.93;99955.56;4860776;28;98474;-89
2024/04/05 02:09:33;;;;;;;10.63;9.82;;;;;;;13.89;55.98;99956.81;4860272;28;98403;-90
2024/04/05 02:12:01;;;;;;;10.05;9.45;;;;;;;13.89;55.73;99958.63;4860531;28;96831;-88
2024/04/05 02:14:27;;;;;;;9.88;9.02;;;;;;;13.95;55.51;99955.66;4844756;28;96972;-90
2024/04/05 02:16:54;;;;;;;10.52;9.73;;;;;;;13.85;55.80;99957.09;4860065;28;98385;-90
2024/04/05 02:19:20;;;;;;;10.20;9.40;;;;;;;13.90;55.77;99961.16;4860369;28;97856;-90
2024/04/05 02:21:45;;;;;;;10.40;9.27;;;;;;;13.92;55.74;99961.09;4844688;28;96742;-90
2024/04/05 02:24:11;;;;;;;10.05;9.27;;;;;;;13.87;55.54;99963.97;4860335;28;97171;-90
2024/04/05 02:26:36;;;;;;;10.48;9.57;;;;;;;13.82;55.72;99956.31;4860487;28;98555;-90
2024/04/05 02:29:02;;;;;;;11.57;10.65;;;;;;;13.90;56.03;99970.88;4847400;28;100987;-91
2024/04/05 02:31:28;;;;;;;10.50;9.63;;;;;;;13.80;56.15;99971.34;4849337;28;96796;-90
2024/04/05 02:33:53;;;;;;;10.50;9.80;;;;;;;13.89;55.96;99962.09;4871694;28;96942;-89
2024/04/05 02:36:18;;;;;;;9.32;8.65;;;;;;;13.98;55.86;99966.88;4832319;28;102066;-90
2024/04/05 02:38:45;;;;;;;10.60;9.70;;;;;;;13.87;56.12;99963.97;4879295;28;100666;-90
2024/04/05 02:41:11;;;;;;;9.70;9.02;;;;;;;13.88;56.11;99970.13;4847815;28;96798;-89
2024/04/05 02:43:38;;;;;;;10.68;9.88;;;;;;;13.87;56.13;99963.97;4865925;28;97262;-90
2024/04/05 02:46:04;;;;;;;11.20;9.50;;;;;;;13.98;55.91;99982.72;4863224;28;97495;-90
2024/04/05 02:48:29;;;;;;;10.63;9.77;;;;;;;13.91;56.38;99981.34;4863548;28;98253;-90
2024/04/05 02:50:55;;;;;;;10.40;9.73;;;;;;;13.85;56.50;99981.69;4847749;28;96806;-89
2024/04/05 02:53:21;;;;;;;10.80;9.88;;;;;;;13.84;56.80;99987.03;4860226;28;97058;-89
2024/04/05 02:55:46;;;;;;;10.82;9.77;;;;;;;13.90;56.11;99979.63;4835942;28;101216;-91
2024/04/05 02:58:12;;;;;;;13.18;9.90;;;;;;;13.84;55.98;99985.22;4834386;28;99738;-90
2024/04/05 03:00:38;;;;;;;11.25;9.90;;;;;;;13.74;56.49;99990.16;4847070;28;96909;-90
2024/04/05 03:03:04;;;;;;;9.52;8.73;;;;;;;13.82;56.66;99987.13;4848789;28;97375;-90
2024/04/05 03:05:31;;;;;;;11.10;9.93;;;;;;;13.76;56.91;99990.09;4879003;28;98299;-90
2024/04/05 03:07:56;;;;;;;10.05;9.18;;;;;;;13.64;56.94;99999.47;4862116;28;100466;-91
2024/04/05 03:10:22;;;;;;;13.02;9.98;;;;;;;13.57;57.23;99998.09;4859682;28;96920;-90
2024/04/05 03:12:51;;;;;;;10.30;9.65;;;;;;;13.52;57.10;100005.38;4863342;28;97983;-90
2024/04/05 03:15:17;;;;;;;11.05;10.25;;;;;;;13.51;57.22;100004.53;4851393;28;100641;-90
2024/04/05 03:17:43;;;;;;;11.68;10.70;;;;;;;13.50;57.50;100004.63;4847399;28;101361;-91
2024/04/05 03:20:12;;;;;;;10.88;9.98;;;;;;;13.42;57.63;100001.50;4845928;28;96798;-90
2024/04/05 03:22:38;;;;;;;11.25;10.45;;;;;;;13.47;57.47;100008.25;4847972;28;96924;-90
2024/04/05 03:25:04;;;;;;;18.13;10.18;;;;;;;13.45;57.84;100004.84;4846857;28;102162;-90
2024/04/05 03:27:30;;;;;;;11.38;10.20;;;;;;;13.55;57.60;100000.78;4846649;28;101213;-89
2024/04/05 03:29:55;;;;;;;10.65;9.57;;;;;;;13.64;56.92;100010.00;4847437;28;96749;-90
2024/04/05 03:32:21;;;;;;;11.13;10.10;;;;;;;13.59;56.84;100002.34;4862621;28;96774;-91
2024/04/05 03:34:47;;;;;;;9.80;9.02;;;;;;;13.63;57.00;100005.69;4846994;28;101424;-91
2024/04/05 03:37:12;;;;;;;11.43;10.23;;;;;;;13.56;57.14;100002.50;4862694;28;98106;-90
2024/04/05 03:39:38;;;;;;;17.88;11.25;;;;;;;13.63;57.27;100007.47;4847799;28;98030;-90
2024/04/05 03:42:03;;;;;;;11.57;10.40;;;;;;;13.62;57.40;100008.41;4847386;28;97091;-91
2024/04/05 03:44:29;;;;;;;20.75;12.23;;;;;;;13.66;56.90;100018.69;4845799;28;101386;-90
2024/04/05 03:46:54;;;;;;;10.57;9.60;;;;;;;13.65;57.04;100017.00;4851779;28;101173;-90
2024/04/05 03:49:20;;;;;;;10.77;9.88;;;;;;;13.64;57.36;100022.34;4843552;28;96883;-91
2024/04/05 03:51:46;;;;;;;10.75;9.77;;;;;;;13.54;56.95;100028.09;4866668;28;97048;-91
2024/04/05 03:54:11;;;;;;;10.82;9.82;;;;;;;13.57;57.35;100032.38;4878030;28;101317;-90
2024/04/05 03:56:37;;;;;;;13.77;10.23;;;;;;;13.57;56.86;100035.00;4846345;28;101197;-92
2024/04/05 03:59:03;;;;;;;10.95;10.05;;;;;;;13.58;57.05;100036.69;4846939;28;96784;-91
2024/04/05 04:01:28;;;;;;;10.50;9.60;;;;;;;13.59;57.05;100031.34;4862750;28;96846;-91
2024/04/05 04:03:55;;;;;;;12.35;11.10;;;;;;;13.50;57.08;100034.47;4878117;28;101567;-90
2024/04/05 04:06:22;;;;;;;10.73;9.93;;;;;;;13.47;57.48;100041.69;4862105;28;101092;-90
2024/04/05 04:08:47;;;;;;;12.25;11.30;;;;;;;13.49;57.19;100048.56;4846535;28;97253;-91
2024/04/05 04:11:13;;;;;;;11.25;10.07;;;;;;;13.53;56.79;100047.50;4847339;28;96894;-90
2024/04/05 04:13:38;;;;;;;11.20;10.40;;;;;;;13.56;56.83;100047.34;4845411;28;101305;-91
2024/04/05 04:16:05;;;;;;;11.60;9.88;;;;;;;13.55;56.85;100052.69;4861634;28;98432;-91
2024/04/05 04:18:31;;;;;;;11.45;10.43;;;;;;;13.44;56.92;100055.00;4855462;28;97440;-90
2024/04/05 04:20:57;;;;;;;10.77;9.45;;;;;;;13.23;57.61;100055.09;4846067;28;96984;-90
2024/04/05 04:23:22;;;;;;;10.70;9.82;;;;;;;13.14;57.81;100047.66;4836315;28;100587;-91
2024/04/05 04:25:49;;;;;;;13.85;11.00;;;;;;;13.11;57.69;100055.72;4847646;28;100188;-90
2024/04/05 04:28:16;;;;;;;12.00;10.98;;;;;;;13.03;57.86;100060.50;4847166;28;96727;-92
2024/04/05 04:30:45;;;;;;;11.80;10.15;;;;;;;13.12;58.06;100057.44;4832715;28;96834;-92
2024/04/05 04:33:13;;;;;;;10.38;9.43;;;;;;;13.36;57.24;100069.44;4847985;28;98228;-92
2024/04/05 04:35:42;;;;;;;20.50;10.52;;;;;;;13.40;57.14;100066.63;4846640;28;100069;-91
2024/04/05 04:38:08;;;;;;;12.02;10.75;;;;;;;13.31;57.38;100062.69;4845804;28;96757;-91
2024/04/05 04:40:34;;;;;;;14.43;10.30;;;;;;;13.25;57.61;100061.19;4832727;28;96871;-92
2024/04/05 04:43:00;;;;;;;14.60;10.50;;;;;;;13.38;57.29;100068.50;4843418;28;101053;-91
2024/04/05 04:45:25;;;;;;;11.38;8.68;;;;;;;13.46;57.17;100077.72;4830476;28;101407;-92
2024/04/05 04:47:51;;;;;;;11.98;10.48;;;;;;;13.48;57.12;100088.22;4830701;28;96856;-90
2024/04/05 04:50:16;;;;;;;13.20;10.15;;;;;;;13.53;56.83;100091.47;4862764;28;97028;-89
2024/04/05 04:52:42;;;;;;;11.77;10.77;;;;;;;13.49;56.65;100088.13;4844355;28;100441;-87
2024/04/05 04:55:10;;;;;;;11.63;10.43;;;;;;;13.38;57.14;100086.94;4845411;28;100321;-88
2024/04/05 04:57:37;;;;;;;12.40;9.85;;;;;;;13.17;57.78;100094.94;4845728;28;96774;-86
2024/04/05 05:00:03;;;;;;;12.98;10.32;;;;;;;13.13;58.09;100099.50;4840303;28;97075;-85
2024/04/05 05:02:29;;;;;;;11.00;10.07;;;;;;;13.12;58.54;100105.72;4841743;29;101282;-87
2024/04/05 05:04:55;;;;;;;10.93;10.02;;;;;;;13.01;58.16;100107.16;4853104;28;101521;-91
2024/04/05 05:07:20;;;;;;;10.05;9.15;;;;;;;12.93;58.54;100110.13;4857670;28;96806;-90
2024/04/05 05:09:46;;;;;;;10.40;9.50;;;;;;;12.82;58.56;100108.00;4844589;28;97047;-89
2024/04/05 05:12:11;;;;;;;10.43;9.48;;;;;;;12.91;58.69;100106.72;4826039;28;101972;-89
2024/04/05 05:14:37;;;;;;;9.20;8.45;;;;;;;12.86;58.78;100112.22;4844776;28;100815;-89
2024/04/05 05:17:05;;;;;;;22.92;8.82;;;;;;;13.02;58.69;100117.59;4861565;28;96816;-89
2024/04/05 05:19:31;;;;;;;13.52;10.15;;;;;;;13.17;58.64;100116.03;4830703;28;96949;-89
2024/04/05 05:21:57;;;;;;;11.43;8.60;;;;;;;13.12;58.30;100118.91;4844950;28;101527;-88
2024/04/05 05:24:23;;;;;;;10.93;10.02;;;;;;;12.99;59.04;100116.91;4845456;28;100680;-89
2024/04/05 05:26:49;;;;;;;12.73;9.43;;;;;;;13.04;59.04;100130.72;4844983;28;96828;-89
2024/04/05 05:29:14;;;;;;;10.07;8.48;;;;;;;13.01;58.75;100126.44;4860745;28;96785;-89
2024/04/05 05:31:40;;;;;;;11.18;9.13;;;;;;;13.08;59.23;100134.91;4845062;28;101779;-89
2024/04/05 05:34:06;;;;;;;16.17;9.60;;;;;;;13.13;58.87;100131.13;4853407;28;101651;-89
2024/04/05 05:36:31;;;;;;;9.18;8.35;;;;;;;13.31;58.73;100134.69;4860866;28;96875;-89
2024/04/05 05:38:57;;;;;;;10.20;8.30;;;;;;;13.34;58.33;100145.09;4846331;29;96980;-89
2024/04/05 05:41:23;;;;;;;10.43;8.63;;;;;;;13.36;58.20;100140.59;4855166;28;101442;-88
2024/04/05 05:43:48;;;;;;;10.45;9.25;;;;;;;13.22;59.41;100148.28;4870881;28;101815;-90
2024/04/05 05:46:14;;;;;;;9.27;8.38;;;;;;;13.14;59.48;100153.91;4859534;28;97763;-90
2024/04/05 05:48:39;;;;;;;14.73;10.00;;;;;;;13.12;59.74;100155.78;4848450;28;97473;-88
2024/04/05 05:51:05;;;;;;;10.05;9.02;;;;;;;13.10;59.98;100156.78;4831635;28;101459;-86
2024/04/05 05:53:30;;;;;;;10.88;9.93;;;;;;;13.06;60.09;100153.44;4860402;28;98032;-88
2024/04/05 05:55:56;;;;;;;9.27;8.35;;;;;;;13.02;59.79;100146.59;4844136;28;96830;-91
2024/04/05 05:58:22;;;;;;;11.10;10.05;;;;;;;13.08;59.93;100153.34;4860759;28;96880;-91
2024/04/05 06:00:47;;;;;;;10.10;9.15;;;;;;;13.13;60.10;100154.84;4844700;28;100578;-90
2024/04/05 06:03:13;;;;;;;9.63;8.82;;;;;;;13.03;60.29;100158.84;4846870;28;101428;-91
2024/04/05 06:05:38;;;;;;;9.07;8.20;;;;;;;12.96;60.42;100152.16;4849671;28;96847;-91
2024/04/05 06:08:06;;;;;;;12.35;9.68;;;;;;;13.19;59.86;100155.50;4848845;28;96886;-91
2024/04/05 06:10:31;;;;;;;8.05;7.45;;;;;;;13.22;60.10;100163.25;4847814;28;101413;-91
2024/04/05 06:12:57;;;;;;;10.95;9.88;;;;;;;13.41;59.74;100163.25;4848089;28;101518;-91
2024/04/05 06:15:23;;;;;;;12.50;7.45;;;;;;;13.53;59.36;100162.69;4847697;29;96959;-92
2024/04/05 06:17:48;;;;;;;10.43;7.60;;;;;;;13.47;59.82;100171.75;4861240;29;96877;-91
2024/04/05 06:20:17;;;;;;;12.00;7.65;;;;;;;13.31;60.27;100162.84;4860927;29;98475;-91
2024/04/05 06:22:42;;;;;;;8.82;7.97;;;;;;;13.42;60.47;100167.63;4845467;29;101826;-91
2024/04/05 06:25:08;;;;;;;13.27;8.05;;;;;;;13.52;60.24;100167.06;4845238;29;96802;-93
2024/04/05 06:27:37;;;;;;;9.73;7.63;;;;;;;13.47;60.28;100160.34;4858694;29;97921;-91
2024/04/05 06:30:03;;;;;;;8.18;7.47;;;;;;;13.54;60.33;100169.66;4856487;29;101491;-89
2024/04/05 06:32:30;;;;;;;8.68;7.85;;;;;;;13.86;59.54;100167.22;4844608;29;97734;-90
2024/04/05 06:34:56;;;;;;;9.70;8.10;;;;;;;14.02;58.63;100169.00;4844018;29;96986;-87
2024/04/05 06:37:22;;;;;;;10.88;7.63;;;;;;;14.39;58.09;100167.09;4840900;29;96935;-89
2024/04/05 06:39:52;;;;;;;13.73;7.95;;;;;;;14.61;57.69;100173.94;4819437;29;100336;-89
2024/04/05 06:42:18;;;;;;;13.68;8.07;;;;;;;14.99;56.56;100184.25;4827692;29;101099;-87
2024/04/05 06:44:43;;;;;;;9.05;8.25;;;;;;;15.11;56.40;100184.41;4859191;28;97172;-83
2024/04/05 06:47:09;;;;;;;15.63;9.52;;;;;;;15.42;55.54;100185.38;4842938;29;97836;-82
2024/04/05 06:49:39;;;;;;;16.80;9.77;;;;;;;15.91;54.38;100193.19;4824756;29;98151;-82
2024/04/05 06:52:06;;;;;;;10.20;8.40;;;;;;;16.72;53.07;100180.34;4798321;29;101969;-83
2024/04/05 06:54:32;;;;;;;11.65;9.48;;;;;;;17.52;51.21;100180.63;4824320;29;97555;-83
2024/04/05 06:56:58;;;;;;;12.32;8.75;;;;;;;18.14;49.95;100184.56;4831675;29;96966;-83
2024/04/05 06:59:24;;;;;;;8.85;8.00;;;;;;;18.71;48.81;100178.84;4845441;29;100250;-83
2024/04/05 07:01:53;;;;;;;11.38;8.77;;;;;;;18.95;48.09;100185.13;4847580;28;101722;-85
2024/04/05 07:04:23;;;;;;;11.32;9.48;;;;;;;20.22;45.15;100182.06;4826576;28;96898;-84
2024/04/05 07:06:50;;;;;;;10.35;9.18;;;;;;;20.87;43.65;100178.78;4826516;29;96914;-85
2024/04/05 07:09:17;;;;;;;10.10;9.10;;;;;;;21.84;41.38;100181.63;4842564;29;98505;-83
2024/04/05 07:11:44;;;;;;;12.35;10.43;;;;;;;22.64;39.89;100186.44;4826667;29;97974;-82
2024/04/05 07:14:09;;;;;;;10.15;9.32;;;;;;;22.69;39.23;100186.88;4828375;28;96817;-83
2024/04/05 07:16:35;;;;;;;10.30;9.13;;;;;;;22.24;39.77;100189.00;4844510;29;96971;-84
2024/04/05 07:19:00;;;;;;;11.88;10.80;;;;;;;22.88;39.11;100198.66;4838676;29;101680;-84
2024/04/05 07:21:26;;;;;;;20.08;11.15;;;;;;;24.05;37.12;100199.78;4853621;28;98073;-84
2024/04/05 07:23:54;;;;;;;13.00;11.77;;;;;;;25.15;35.71;100188.53;4854886;29;97450;-85
2024/04/05 07:26:19;;;;;;;9.93;8.93;;;;;;;26.18;34.57;100188.09;4857578;29;96926;-85
2024/04/05 07:28:45;;;;;;;14.35;7.95;;;;;;;26.59;32.93;100195.63;4852030;29;98202;-84
2024/04/05 07:31:10;;;;;;;8.23;6.45;;;;;;;27.10;32.40;100191.16;4857595;29;100984;-86
2024/04/05 07:33:36;;;;;;;6.25;3.78;;;;;;;27.88;31.68;100204.41;4842170;29;96846;-84
2024/04/05 07:36:03;;;;;;;9.10;3.40;;;;;;;28.58;30.59;100206.59;4839162;29;97198;-85
2024/04/05 07:38:29;;;;;;;6.13;4.70;;;;;;;29.36;29.79;100199.59;4857039;29;101867;-87
2024/04/05 07:41:14;;;;;;;7.50;5.03;;;;;;;29.90;28.13;100201.47;4851070;29;101911;-85
2024/04/05 07:43:41;;;;;;;9.50;5.03;;;;;;;29.31;28.35;100205.50;4853651;28;97938;-85
2024/04/05 07:46:07;;;;;;;6.72;4.90;;;;;;;29.82;28.44;100206.94;4836124;28;97921;-85
2024/04/05 07:48:33;;;;;;;9.30;8.32;;;;;;;29.89;27.88;100197.09;4861921;28;97907;-85
2024/04/05 07:50:59;;;;;;;10.18;9.13;;;;;;;30.25;27.72;100201.88;4846095;29;100777;-84
2024/04/05 07:53:25;;;;;;;13.10;10.00;;;;;;;29.92;27.66;100200.25;4820513;29;97352;-85
2024/04/05 07:55:51;;;;;;;13.27;9.43;;;;;;;29.92;27.39;100194.03;4839973;29;97884;-85
2024/04/05 07:58:18;;;;;;;10.25;9.25;;;;;;;30.38;27.08;100194.81;4816110;29;97995;-85
2024/04/05 08:00:43;;;;;;;10.82;9.90;;;;;;;30.81;26.42;100196.97;4824688;29;101100;-85
2024/04/05 08:03:09;;;;;;;11.95;10.02;;;;;;;29.05;28.01;100213.06;4841068;28;97311;-85
2024/04/05 08:05:35;;;;;;;10.35;9.45;;;;;;;28.39;28.79;100207.78;4840695;29;97420;-85
2024/04/05 08:08:01;;;;;;;11.65;9.30;;;;;;;27.55;29.75;100208.88;4839001;29;101698;-85
2024/04/05 08:10:30;;;;;;;11.52;10.48;;;;;;;27.44;30.34;100222.66;4840247;28;100956;-85
2024/04/05 08:12:56;;;;;;;12.13;11.05;;;;;;;27.97;29.16;100218.72;4842248;29;98010;-84
2024/04/05 08:15:21;;;;;;;12.68;11.38;;;;;;;29.26;28.22;100218.72;4828582;28;98216;-84
2024/04/05 08:17:47;;;;;;;12.75;11.57;;;;;;;31.34;26.21;100208.50;4838808;29;101723;-87
2024/04/05 08:20:12;;;;;;;12.60;11.52;;;;;;;33.48;23.29;100207.31;4834388;29;101410;-85
2024/04/05 08:22:38;;;;;;;9.10;8.05;;;;;;;34.43;22.44;100210.81;4856157;28;97854;-85
2024/04/05 08:25:07;;;;;;;8.38;7.25;;;;;;;35.43;21.63;100205.13;4811707;29;97314;-87
2024/04/05 08:27:33;;;;;;;6.47;5.97;;;;;;;36.67;20.34;100197.31;4846794;29;102159;-85
2024/04/05 08:29:59;;;;;;;13.40;5.45;;;;;;;38.31;18.99;100194.47;4824825;29;101395;-84
2024/04/05 08:32:24;;;;;;;6.55;2.55;;;;;;;39.30;17.93;100191.78;4852205;29;97947;-85
2024/04/05 08:34:50;;;;;;;6.90;2.20;;;;;;;39.24;18.62;100194.63;4832186;29;98254;-85
2024/04/05 08:37:16;;;;;;;6.38;2.42;;;;;;;39.57;17.63;100199.41;4834988;29;102066;-85
2024/04/05 08:39:42;;;;;;;5.22;1.95;;;;;;;41.00;16.97;100198.13;4827177;29;98007;-84
2024/04/05 08:42:20;;;;;;;6.15;2.00;;;;;;;39.72;17.64;100209.84;4830543;28;97936;-85
2024/04/05 08:44:49;;;;;;;4.78;2.13;;;;;;;39.08;17.77;100188.00;4833086;29;97929;-85
2024/04/05 08:47:16;;;;;;;6.33;2.53;;;;;;;38.48;18.19;100194.63;4823955;29;101408;-86
2024/04/05 08:49:42;;;;;;;6.30;2.30;;;;;;;40.25;16.99;100203.94;4849208;29;101033;-86
2024/04/05 08:52:08;;;;;;;5.43;2.22;;;;;;;41.55;16.15;100192.47;4838199;29;96914;-85
2024/04/05 08:54:35;;;;;;;4.60;1.92;;;;;;;36.78;19.20;100198.47;4858481;28;97079;-85
2024/04/05 08:57:01;;;;;;;5.65;2.30;;;;;;;39.16;18.11;100191.19;4852287;29;97844;-85
2024/04/05 08:59:30;;;;;;;4.10;2.00;;;;;;;39.04;17.79;100192.28;4838972;29;101320;-84
2024/04/05 09:02:00;;;;;;;6.47;2.78;;;;;;;37.83;18.85;100199.03;4836645;29;97376;-88
2024/04/05 09:04:26;;;;;;;9.63;2.50;;;;;;;39.15;17.85;100192.25;4856713;28;97334;-84
2024/04/05 09:06:52;;;;;;;7.57;2.20;;;;;;;37.92;19.40;100198.69;4832882;29;98023;-86
2024/04/05 09:09:28;;;;;;;5.57;2.35;;;;;;;39.38;18.19;100196.84;4824595;29;101199;-77
2024/04/05 09:12:14;;;;;;;4.95;2.05;;;;;;;37.09;18.77;100197.50;4847328;28;97233;-78
2024/04/05 09:14:40;;;;;;;10.63;2.08;;;;;;;40.85;16.35;100196.84;4833459;29;98302;-84
2024/04/05 09:17:16;;;;;;;23.73;3.13;;;;;;;38.89;18.18;100201.03;4812133;29;101488;-81
2024/04/05 09:19:42;;;;;;;6.03;2.35;;;;;;;36.31;20.02;100203.53;4828818;29;101691;-87
2024/04/05 09:22:08;;;;;;;6.40;2.25;;;;;;;39.71;17.66;100194.44;4830647;29;97811;-84
2024/04/05 09:24:34;;;;;;;7.40;2.15;;;;;;;42.05;15.49;100187.72;4831998;29;97502;-84
2024/04/05 09:27:03;;;;;;;10.15;2.50;;;;;;;36.49;19.44;100198.09;4815591;29;97549;-86
2024/04/05 09:29:29;;;;;;;5.32;2.33;;;;;;;38.37;18.44;100192.69;4832114;29;101213;-82
2024/04/05 09:31:55;;;;;;;6.68;2.28;;;;;;;40.52;16.72;100183.97;4831130;29;96847;-85
2024/04/05 09:34:25;;;;;;;6.13;2.47;;;;;;;41.89;15.47;100185.88;4849287;28;98049;-84
2024/04/05 09:36:52;;;;;;;4.43;2.45;;;;;;;41.38;15.83;100186.22;4830373;29;98676;-83
2024/04/05 09:39:21;;;;;;;7.30;2.55;;;;;;;39.27;17.39;100184.00;4828032;29;101375;-82
2024/04/05 09:41:47;;;;;;;5.57;2.10;;;;;;;41.17;15.74;100190.66;4811298;29;98167;-87
2024/04/05 09:44:14;;;;;;;6.13;2.13;;;;;;;39.70;17.28;100198.25;4811915;29;98080;-88
2024/04/05 09:46:41;;;;;;;6.72;2.53;;;;;;;35.79;19.83;100196.34;4823228;29;101337;-83
2024/04/05 09:49:07;;;;;;;7.28;2.45;;;;;;;33.48;22.00;100190.13;4824660;29;98582;-89
2024/04/05 09:51:48;;;;;;;5.95;2.25;;;;;;;32.45;22.71;100190.03;4827151;29;98649;-83
2024/04/05 09:54:20;;;;;;;5.97;2.63;;;;;;;31.48;24.28;100194.09;4828421;29;98555;-83
2024/04/05 09:56:46;;;;;;;8.38;2.90;;;;;;;30.99;24.93;100192.00;4838033;28;99659;-83
2024/04/05 09:59:32;;;;;;;14.85;3.78;;;;;;;30.44;25.62;100190.53;4846944;28;97904;-87
2024/04/05 10:01:57;;;;;;;7.05;2.35;;;;;;;30.26;25.36;100192.75;4811117;29;98560;-90
2024/04/05 10:04:24;;;;;;;9.35;2.42;;;;;;;30.13;25.59;100188.75;4828968;29;97728;-89
2024/04/05 10:06:50;;;;;;;6.10;2.35;;;;;;;28.82;26.52;100189.47;4809168;29;101047;-90
2024/04/05 10:09:22;;;;;;;9.35;2.78;;;;;;;28.88;27.10;100187.94;4827708;29;98548;-87
2024/04/05 10:11:51;;;;;;;4.05;2.08;;;;;;;28.78;27.96;100185.44;4799767;29;97940;-86
2024/04/05 10:14:26;;;;;;;9.00;2.17;;;;;;;28.98;27.79;100176.94;4831699;28;98975;-91
2024/04/05 10:16:52;;;;;;;5.78;2.33;;;;;;;28.75;27.78;100177.69;4833943;28;98602;-90
2024/04/05 10:19:28;;;;;;;6.55;2.40;;;;;;;28.15;28.28;100186.19;4850195;28;98283;-92
2024/04/05 10:22:11;;;;;;;6.93;2.20;;;;;;;27.98;27.62;100190.75;4833668;28;98187;-84
2024/04/05 10:24:37;;;;;;;9.65;2.80;;;;;;;27.92;28.49;100184.16;4830513;28;97850;-87
2024/04/05 10:27:09;;;;;;;7.05;1.98;;;;;;;27.63;29.14;100194.53;4822421;28;101684;-89
2024/04/05 10:29:34;;;;;;;4.95;2.25;;;;;;;27.60;28.57;100202.97;4851266;28;98093;-88
2024/04/05 10:32:01;;;;;;;8.13;2.67;;;;;;;27.03;28.68;100196.38;4850319;28;97695;-89
2024/04/05 10:34:28;;;;;;;8.63;2.65;;;;;;;26.60;29.14;100200.84;4832320;28;98453;-85
2024/04/05 10:36:56;;;;;;;8.07;3.08;;;;;;;26.70;29.80;100198.03;4851795;28;98022;-88
2024/04/05 10:39:22;;;;;;;9.43;3.28;;;;;;;26.94;29.85;100208.09;4870180;28;99976;-88
2024/04/05 10:41:48;;;;;;;9.48;2.42;;;;;;;27.08;30.09;100204.81;4837348;28;97409;-92
2024/04/05 10:44:14;;;;;;;5.07;1.98;;;;;;;27.20;30.17;100200.00;4853666;28;97962;-90
2024/04/05 10:46:41;;;;;;;9.32;3.58;;;;;;;27.08;29.76;100196.72;4847682;28;98241;-89
2024/04/05 10:49:07;;;;;;;11.85;3.03;;;;;;;27.27;29.99;100194.81;4851215;28;97996;-91
2024/04/05 10:51:33;;;;;;;7.00;2.40;;;;;;;26.92;29.54;100195.81;4869635;28;97429;-89
2024/04/05 10:54:12;;;;;;;7.32;2.95;;;;;;;26.42;29.47;100200.88;4823432;28;98098;-87
2024/04/05 10:56:39;;;;;;;7.28;2.47;;;;;;;26.24;30.48;100197.38;4835173;28;99844;-86
2024/04/05 10:59:12;;;;;;;8.18;2.30;;;;;;;26.28;30.75;100198.75;4850676;28;98017;-84
2024/04/05 11:01:38;;;;;;;9.68;3.05;;;;;;;26.02;30.93;100195.16;4850932;28;97519;-86
2024/04/05 11:04:10;;;;;;;6.15;2.10;;;;;;;26.02;31.15;100189.78;4839804;28;97534;-91
2024/04/05 11:06:37;;;;;;;4.97;1.98;;;;;;;25.75;30.92;100189.69;4867826;28;98652;-91
2024/04/05 11:09:03;;;;;;;6.10;2.38;;;;;;;25.47;30.18;100193.44;4853189;28;97966;-91
2024/04/05 11:11:28;;;;;;;7.20;2.17;;;;;;;25.58;31.06;100195.91;4823411;28;98303;-91
2024/04/05 11:14:09;;;;;;;7.47;2.38;;;;;;;25.57;31.04;100206.78;4828371;28;96887;-90
2024/04/05 11:16:36;;;;;;;10.23;2.50;;;;;;;25.40;31.33;100203.09;4834553;28;101914;-86